createdAt,value
2023-02-19T00:00:57.874Z,7.4
2023-02-19T00:01:58.865Z,7.4
2023-02-19T00:02:59.861Z,7.3
2023-02-19T00:04:00.837Z,7.2
2023-02-19T00:05:01.972Z,7.3
2023-02-19T00:06:02.814Z,7.3
2023-02-19T00:07:03.873Z,7.4
2023-02-19T00:08:04.863Z,7.4
2023-02-19T00:09:05.874Z,7.4
2023-02-19T00:10:06.840Z,7.4
2023-02-19T00:11:08.139Z,7.5
2023-02-19T00:12:08.856Z,7.5
2023-02-19T00:13:09.893Z,7.4
2023-02-19T00:14:10.858Z,7.4
2023-02-19T00:15:11.833Z,7.4
2023-02-19T00:16:12.843Z,7.4
2023-02-19T00:17:13.868Z,7.4
2023-02-19T00:18:14.814Z,7.4
2023-02-19T00:19:16.066Z,7.4
2023-02-19T00:20:17.853Z,7.4
2023-02-19T00:21:18.855Z,7.4
2023-02-19T00:22:19.838Z,7.4
2023-02-19T00:23:20.847Z,7.3
2023-02-19T00:24:21.874Z,7.3
2023-02-19T00:25:22.867Z,7.4
2023-02-19T00:26:23.843Z,7.4
2023-02-19T00:27:24.835Z,7.5
2023-02-19T00:28:25.783Z,7.4
2023-02-19T00:29:26.883Z,7.4
2023-02-19T00:30:27.886Z,7.4
2023-02-19T00:31:30.858Z,7.4
2023-02-19T00:32:29.897Z,7.4
2023-02-19T00:33:30.836Z,7.3
2023-02-19T00:34:31.836Z,7.3
2023-02-19T00:35:32.877Z,7.3
2023-02-19T00:36:33.906Z,7.2
2023-02-19T00:37:34.856Z,7.2
2023-02-19T00:38:35.836Z,7.2
2023-02-19T00:39:36.856Z,7.2
2023-02-19T00:40:37.796Z,7.2
2023-02-19T00:41:38.898Z,7.2
2023-02-19T00:42:39.877Z,7.2
2023-02-19T00:43:40.825Z,7.2
2023-02-19T00:44:41.884Z,7.2
2023-02-19T00:45:42.863Z,7.3
2023-02-19T00:46:43.956Z,7.3
2023-02-19T00:47:45.016Z,7.2
2023-02-19T00:48:45.858Z,7.2
2023-02-19T00:49:46.857Z,7.1
2023-02-19T00:50:48.857Z,7
2023-02-19T00:51:49.902Z,6.9
2023-02-19T00:52:50.851Z,6.9
2023-02-19T00:53:51.924Z,6.9
2023-02-19T00:54:52.862Z,6.9
2023-02-19T00:55:53.898Z,6.9
2023-02-19T00:56:54.955Z,6.8
2023-02-19T00:57:55.898Z,6.8
2023-02-19T00:58:56.933Z,6.8
2023-02-19T00:59:57.878Z,6.9
2023-02-19T01:01:18.352Z,6.9
2023-02-19T01:02:18.881Z,6.9
2023-02-19T01:03:19.892Z,6.9
2023-02-19T01:04:20.966Z,6.8
2023-02-19T01:05:21.870Z,6.8
2023-02-19T01:06:22.879Z,6.8
2023-02-19T01:07:23.875Z,6.8
2023-02-19T01:08:24.854Z,6.8
2023-02-19T01:09:25.845Z,6.9
2023-02-19T01:10:26.854Z,6.9
2023-02-19T01:11:27.839Z,6.9
2023-02-19T01:12:28.904Z,6.8
2023-02-19T01:13:29.828Z,6.8
2023-02-19T01:14:30.893Z,6.8
2023-02-19T01:15:31.879Z,6.9
2023-02-19T01:16:32.873Z,6.9
2023-02-19T01:17:33.878Z,7
2023-02-19T01:18:34.889Z,7
2023-02-19T01:19:36.078Z,7
2023-02-19T01:20:37.903Z,6.9
2023-02-19T01:21:38.892Z,6.7
2023-02-19T01:22:39.872Z,6.6
2023-02-19T01:23:40.919Z,6.5
2023-02-19T01:24:41.876Z,6.4
2023-02-19T01:25:42.858Z,6.4
2023-02-19T01:26:43.932Z,6.4
2023-02-19T01:27:44.911Z,6.4
2023-02-19T01:28:45.871Z,6.4
2023-02-19T01:29:46.893Z,6.4
2023-02-19T01:30:47.892Z,6.4
2023-02-19T01:31:48.992Z,6.4
2023-02-19T01:32:49.841Z,6.5
2023-02-19T01:33:50.900Z,6.4
2023-02-19T01:34:51.851Z,6.4
2023-02-19T01:35:52.916Z,6.4
2023-02-19T01:36:53.891Z,6.4
2023-02-19T01:37:54.892Z,6.5
2023-02-19T01:38:55.882Z,6.3
2023-02-19T01:39:56.862Z,6.3
2023-02-19T01:40:57.925Z,6.3
2023-02-19T01:41:58.899Z,6.3
2023-02-19T01:42:59.966Z,6.4
2023-02-19T01:44:00.875Z,6.4
2023-02-19T01:45:01.921Z,6.5
2023-02-19T01:46:02.895Z,6.5
2023-02-19T01:47:03.894Z,6.5
2023-02-19T01:48:04.922Z,6.5
2023-02-19T01:49:05.919Z,6.5
2023-02-19T01:50:06.894Z,6.5
2023-02-19T01:51:08.323Z,6.5
2023-02-19T01:52:08.962Z,6.6
2023-02-19T01:53:11.065Z,6.6
2023-02-19T01:54:12.918Z,6.7
2023-02-19T01:55:13.902Z,6.6
2023-02-19T01:56:14.895Z,6.7
2023-02-19T01:57:15.975Z,6.5
2023-02-19T01:58:17.961Z,6.5
2023-02-19T01:59:18.923Z,6.4
2023-02-19T02:00:19.874Z,6.5
2023-02-19T02:01:20.915Z,6.6
2023-02-19T02:02:21.894Z,6.7
2023-02-19T02:06:32.050Z,7
2023-02-19T02:07:32.859Z,7.1
2023-02-19T02:08:33.886Z,7.1
2023-02-19T02:09:34.923Z,7.1
2023-02-19T02:10:35.901Z,7.2
2023-02-19T02:11:36.882Z,7.3
2023-02-19T02:12:37.886Z,7.2
2023-02-19T02:13:38.923Z,7.2
2023-02-19T02:14:39.861Z,7.1
2023-02-19T02:15:40.862Z,7.1
2023-02-19T02:16:41.906Z,7.1
2023-02-19T02:17:42.902Z,7
2023-02-19T02:18:43.956Z,6.9
2023-02-19T02:19:44.933Z,7
2023-02-19T02:20:45.946Z,7
2023-02-19T02:21:46.927Z,7.1
2023-02-19T02:22:47.897Z,7.1
2023-02-19T02:23:48.944Z,7.1
2023-02-19T02:24:49.887Z,7.2
2023-02-19T02:25:50.887Z,7.1
2023-02-19T02:26:51.869Z,7.1
2023-02-19T02:27:52.956Z,7.2
2023-02-19T02:28:53.895Z,7.3
2023-02-19T02:29:54.944Z,7.3
2023-02-19T02:30:55.950Z,7.3
2023-02-19T02:31:57.120Z,7.3
2023-02-19T02:32:57.885Z,7.4
2023-02-19T02:33:58.925Z,7.5
2023-02-19T02:34:59.908Z,7.4
2023-02-19T02:36:00.884Z,7.4
2023-02-19T02:37:01.970Z,7.4
2023-02-19T02:38:02.887Z,7.4
2023-02-19T02:39:03.944Z,7.4
2023-02-19T02:40:04.910Z,7.4
2023-02-19T02:41:05.905Z,7.4
2023-02-19T02:42:06.933Z,7.3
2023-02-19T02:43:07.952Z,7.2
2023-02-19T02:44:08.925Z,7.1
2023-02-19T02:45:09.965Z,7
2023-02-19T02:46:10.889Z,7.1
2023-02-19T02:47:11.888Z,7
2023-02-19T02:48:12.930Z,7
2023-02-19T02:49:13.946Z,7
2023-02-19T02:50:14.904Z,6.9
2023-02-19T02:51:15.890Z,6.8
2023-02-19T02:52:16.931Z,6.7
2023-02-19T02:53:17.963Z,6.7
2023-02-19T02:54:18.943Z,6.7
2023-02-19T02:55:19.879Z,6.6
2023-02-19T02:56:20.909Z,6.7
2023-02-19T02:57:21.966Z,6.7
2023-02-19T02:58:22.964Z,6.6
2023-02-19T02:59:23.905Z,6.6
2023-02-19T03:00:24.932Z,6.6
2023-02-19T03:01:25.982Z,6.6
2023-02-19T03:02:26.937Z,6.6
2023-02-19T03:03:27.877Z,6.6
2023-02-19T03:04:28.923Z,6.6
2023-02-19T03:05:29.923Z,6.6
2023-02-19T03:06:30.929Z,6.6
2023-02-19T03:07:31.902Z,6.7
2023-02-19T03:08:32.883Z,6.7
2023-02-19T03:09:33.984Z,6.7
2023-02-19T03:10:34.955Z,6.8
2023-02-19T03:11:35.923Z,6.8
2023-02-19T03:12:36.964Z,6.8
2023-02-19T03:13:37.932Z,6.9
2023-02-19T03:14:38.971Z,6.9
2023-02-19T03:15:39.965Z,6.9
2023-02-19T03:16:42.769Z,7
2023-02-19T03:17:41.904Z,7.1
2023-02-19T03:18:42.950Z,7.2
2023-02-19T03:19:43.982Z,7.2
2023-02-19T03:20:44.904Z,7.2
2023-02-19T03:21:45.926Z,7.2
2023-02-19T03:22:46.901Z,7.3
2023-02-19T03:23:47.962Z,7.3
2023-02-19T03:24:48.921Z,7.3
2023-02-19T03:25:49.940Z,7.3
2023-02-19T03:26:50.922Z,7.3
2023-02-19T03:27:51.926Z,7.3
2023-02-19T03:28:52.905Z,7.3
2023-02-19T03:29:54.001Z,7.3
2023-02-19T03:30:55.112Z,7.3
2023-02-19T03:31:55.996Z,7.3
2023-02-19T03:32:56.945Z,7.3
2023-02-19T03:33:57.971Z,7.2
2023-02-19T03:34:59.081Z,7.3
2023-02-19T03:35:59.981Z,7.3
2023-02-19T03:37:00.920Z,7.2
2023-02-19T03:38:01.979Z,7.2
2023-02-19T03:39:02.933Z,7.3
2023-02-19T03:40:03.940Z,7.3
2023-02-19T03:41:05.165Z,7.3
2023-02-19T03:42:06.980Z,7.4
2023-02-19T03:43:07.940Z,7.4
2023-02-19T03:44:08.924Z,7.4
2023-02-19T03:45:09.978Z,7.6
2023-02-19T03:46:10.964Z,7.6
2023-02-19T03:47:11.919Z,7.6
2023-02-19T03:48:12.960Z,7.6
2023-02-19T03:49:13.919Z,7.6
2023-02-19T03:50:14.948Z,7.5
2023-02-19T03:51:15.980Z,7.5
2023-02-19T03:52:16.982Z,7.4
2023-02-19T03:53:17.920Z,7.4
2023-02-19T03:54:18.980Z,7.3
2023-02-19T03:55:19.976Z,7.1
2023-02-19T03:56:21.022Z,7
2023-02-19T03:57:21.923Z,6.9
2023-02-19T03:58:22.933Z,6.9
2023-02-19T03:59:23.944Z,6.8
2023-02-19T04:00:24.951Z,6.8
2023-02-19T04:01:25.963Z,6.8
2023-02-19T04:02:27.039Z,6.6
2023-02-19T04:03:27.939Z,6.6
2023-02-19T04:04:32.034Z,6.6
2023-02-19T04:05:32.984Z,6.5
2023-02-19T04:06:33.992Z,6.5
2023-02-19T04:07:35.123Z,6.5
2023-02-19T04:08:35.991Z,6.5
2023-02-19T04:09:36.945Z,6.4
2023-02-19T04:10:38.008Z,6.5
2023-02-19T04:11:39.964Z,6.5
2023-02-19T04:12:40.945Z,6.6
2023-02-19T04:13:41.987Z,6.7
2023-02-19T04:14:42.985Z,6.8
2023-02-19T04:15:44.088Z,6.8
2023-02-19T04:16:46.013Z,6.9
2023-02-19T04:17:47.045Z,6.9
2023-02-19T04:18:48.029Z,6.9
2023-02-19T04:19:48.978Z,6.8
2023-02-19T04:20:49.954Z,6.9
2023-02-19T04:21:51.044Z,6.9
2023-02-19T04:22:53.013Z,6.9
2023-02-19T04:23:53.968Z,6.9
2023-02-19T04:24:54.947Z,6.9
2023-02-19T04:25:56.003Z,6.9
2023-02-19T04:26:57.026Z,7
2023-02-19T04:27:57.987Z,7
2023-02-19T04:28:58.968Z,6.9
2023-02-19T04:29:59.991Z,6.9
2023-02-19T04:31:00.997Z,6.8
2023-02-19T04:32:02.057Z,6.8
2023-02-19T04:33:02.951Z,6.8
2023-02-19T04:34:04.005Z,6.8
2023-02-19T04:35:04.936Z,6.8
2023-02-19T04:36:05.982Z,6.8
2023-02-19T04:37:07.101Z,6.8
2023-02-19T04:38:09.002Z,6.7
2023-02-19T04:39:10.030Z,6.6
2023-02-19T04:40:11.081Z,6.6
2023-02-19T04:41:12.292Z,6.5
2023-02-19T04:42:12.967Z,6.6
2023-02-19T04:43:14.190Z,6.5
2023-02-19T04:44:15.019Z,6.4
2023-02-19T04:45:16.119Z,6.4
2023-02-19T04:46:17.977Z,6.3
2023-02-19T04:47:19.048Z,6.4
2023-02-19T04:48:20.045Z,6.4
2023-02-19T04:49:20.987Z,6.5
2023-02-19T04:50:21.989Z,6.5
2023-02-19T04:51:23.027Z,6.6
2023-02-19T04:52:24.520Z,6.7
2023-02-19T04:53:25.965Z,6.7
2023-02-19T04:54:27.026Z,6.8
2023-02-19T04:55:27.981Z,6.7
2023-02-19T04:56:30.061Z,6.4
2023-02-19T04:57:33.977Z,6.1
2023-02-19T04:58:34.978Z,6
2023-02-19T04:59:36.027Z,6.1
2023-02-19T05:00:36.994Z,6.2
2023-02-19T05:01:39.118Z,6.3
2023-02-19T05:02:46.278Z,6.3
2023-02-19T05:03:56.520Z,6.4
2023-02-19T05:05:06.411Z,6.4
2023-02-19T05:06:12.038Z,6.3
2023-02-19T05:07:12.988Z,6.4
2023-02-19T05:08:14.038Z,6.3
2023-02-19T05:09:14.999Z,6.4
2023-02-19T05:10:15.998Z,6.5
2023-02-19T05:11:17.002Z,6.5
2023-02-19T05:12:17.980Z,6.5
2023-02-19T05:13:19.046Z,6.5
2023-02-19T05:14:19.986Z,6.4
2023-02-19T05:15:20.978Z,6.5
2023-02-19T05:16:21.998Z,6.6
2023-02-19T05:17:22.979Z,6.6
2023-02-19T05:18:24.039Z,6.5
2023-02-19T05:19:26.039Z,6.6
2023-02-19T05:20:26.998Z,6.7
2023-02-19T05:21:28.022Z,6.5
2023-02-19T05:22:29.000Z,6.3
2023-02-19T05:23:30.018Z,6
2023-02-19T05:24:31.140Z,6
2023-02-19T05:25:32.320Z,6.1
2023-02-19T05:26:35.040Z,6.2
2023-02-19T05:27:36.998Z,6.3
2023-02-19T05:28:39.281Z,6.4
2023-02-19T05:29:40.960Z,6.5
2023-02-19T05:30:41.979Z,6.6
2023-02-19T05:31:43.175Z,6.7
2023-02-19T05:32:43.985Z,6.6
2023-02-19T05:33:45.019Z,6.4
2023-02-19T05:34:45.987Z,6.3
2023-02-19T05:35:46.959Z,6.2
2023-02-19T05:36:47.998Z,6.1
2023-02-19T05:37:49.021Z,6.2
2023-02-19T05:38:50.008Z,6.3
2023-02-19T05:39:50.978Z,6.2
2023-02-19T05:40:52.038Z,6.1
2023-02-19T05:41:53.000Z,6
2023-02-19T05:42:54.017Z,6.1
2023-02-19T05:43:55.049Z,6.1
2023-02-19T05:44:56.024Z,6.1
2023-02-19T05:45:56.986Z,5.9
2023-02-19T05:46:57.994Z,5.9
2023-02-19T05:47:58.981Z,5.7
2023-02-19T05:49:00.048Z,5.5
2023-02-19T05:50:01.021Z,5.5
2023-02-19T05:51:02.031Z,5.5
2023-02-19T05:52:03.062Z,5.7
2023-02-19T05:53:04.137Z,5.7
2023-02-19T05:54:06.040Z,5.7
2023-02-19T05:55:07.038Z,5.8
2023-02-19T05:56:08.000Z,6
2023-02-19T05:57:08.983Z,6
2023-02-19T05:58:10.061Z,5.9
2023-02-19T05:59:10.999Z,5.9
2023-02-19T06:00:12.035Z,5.9
2023-02-19T06:01:12.945Z,6
2023-02-19T06:02:13.999Z,6
2023-02-19T06:03:14.980Z,5.9
2023-02-19T06:04:16.139Z,5.8
2023-02-19T06:05:17.009Z,5.8
2023-02-19T06:06:18.066Z,5.9
2023-02-19T06:07:19.018Z,6
2023-02-19T06:08:20.004Z,6
2023-02-19T06:09:20.950Z,5.9
2023-02-19T06:10:22.004Z,5.9
2023-02-19T06:11:22.999Z,6
2023-02-19T06:12:24.031Z,5.9
2023-02-19T06:13:25.027Z,5.8
2023-02-19T06:14:25.972Z,5.7
2023-02-19T06:15:27.060Z,5.7
2023-02-19T06:16:28.018Z,5.8
2023-02-19T06:17:29.001Z,5.8
2023-02-19T06:18:30.018Z,5.8
2023-02-19T06:19:31.039Z,5.8
2023-02-19T06:20:32.040Z,5.7
2023-02-19T06:21:33.039Z,5.6
2023-02-19T06:22:34.985Z,5.6
2023-02-19T06:23:35.979Z,5.5
2023-02-19T06:24:36.981Z,5.6
2023-02-19T06:25:38.039Z,5.7
2023-02-19T06:26:39.062Z,5.8
2023-02-19T06:27:40.044Z,5.9
2023-02-19T06:28:41.042Z,5.8
2023-02-19T06:29:42.023Z,5.9
2023-02-19T06:30:43.025Z,6
2023-02-19T06:31:44.119Z,6.1
2023-02-19T06:32:44.986Z,6.3
2023-02-19T06:33:46.045Z,6.3
2023-02-19T06:34:47.043Z,6.4
2023-02-19T06:35:48.044Z,6.4
2023-02-19T06:36:49.024Z,6.3
2023-02-19T06:37:50.503Z,6.3
2023-02-19T06:38:54.243Z,6.4
2023-02-19T06:39:58.084Z,6.5
2023-02-19T06:40:59.064Z,6.4
2023-02-19T06:42:00.004Z,6.3
2023-02-19T06:43:01.069Z,6.3
2023-02-19T06:44:02.040Z,6.4
2023-02-19T06:45:03.113Z,6.6
2023-02-19T06:46:05.664Z,6.7
2023-02-19T06:47:11.208Z,6.8
2023-02-19T06:48:19.757Z,6.8
2023-02-19T06:49:24.555Z,6.9
2023-02-19T06:50:29.608Z,6.9
2023-02-19T06:51:36.649Z,6.9
2023-02-19T06:52:42.388Z,7
2023-02-19T06:53:48.985Z,7
2023-02-19T06:54:52.743Z,7
2023-02-19T06:56:00.808Z,7
2023-02-19T06:57:06.186Z,7
2023-02-19T06:58:12.007Z,6.9
2023-02-19T06:59:16.105Z,6.9
2023-02-19T07:00:19.926Z,6.8
2023-02-19T07:01:24.647Z,6.8
2023-02-19T07:02:28.100Z,6.7
2023-02-19T07:03:30.232Z,6.7
2023-02-19T07:04:32.437Z,6.7
2023-02-19T07:05:34.205Z,6.7
2023-02-19T07:06:37.043Z,6.6
2023-02-19T07:07:38.991Z,6.6
2023-02-19T07:08:40.486Z,6.5
2023-02-19T07:09:44.069Z,6.5
2023-02-19T07:10:46.064Z,6.4
2023-02-19T07:11:47.022Z,6.4
2023-02-19T07:12:48.024Z,6.4
2023-02-19T07:13:49.130Z,6.4
2023-02-19T07:14:52.400Z,6.3
2023-02-19T07:15:54.261Z,6.2
2023-02-19T07:16:59.605Z,6.2
2023-02-19T07:18:04.981Z,6.2
2023-02-19T07:19:09.160Z,6.3
2023-02-19T07:20:10.079Z,6.3
2023-02-19T07:21:11.402Z,6.3
2023-02-19T07:22:12.028Z,6.3
2023-02-19T07:23:13.076Z,6.2
2023-02-19T07:24:17.212Z,6.3
2023-02-19T07:25:20.163Z,6.3
2023-02-19T07:26:21.160Z,6.3
2023-02-19T07:27:28.144Z,6.3
2023-02-19T07:28:34.759Z,6.2
2023-02-19T07:29:39.009Z,6.2
2023-02-19T07:30:44.937Z,6.2
2023-02-19T07:31:49.837Z,6.2
2023-02-19T07:32:57.259Z,6.2
2023-02-19T07:34:07.325Z,6.2
2023-02-19T07:35:14.058Z,6.2
2023-02-19T07:36:15.370Z,6.2
2023-02-19T07:37:17.339Z,6.2
2023-02-19T07:38:20.150Z,6.3
2023-02-19T07:39:23.298Z,6.3
2023-02-19T07:40:25.210Z,6.3
2023-02-19T07:41:27.298Z,6.4
2023-02-19T07:42:29.021Z,6.4
2023-02-19T07:43:30.647Z,6.4
2023-02-19T07:44:33.264Z,6.4
2023-02-19T07:45:35.213Z,6.3
2023-02-19T07:46:36.345Z,6.2
2023-02-19T07:47:41.042Z,5.9
2023-02-19T07:48:43.708Z,5.7
2023-02-19T07:49:47.065Z,5.6
2023-02-19T07:50:48.625Z,5.6
2023-02-19T07:51:52.303Z,5.6
2023-02-19T07:52:55.949Z,5.7
2023-02-19T07:53:58.063Z,5.5
2023-02-19T07:55:00.115Z,5.3
2023-02-19T07:56:02.248Z,5.2
2023-02-19T07:57:04.347Z,5.2
2023-02-19T07:58:06.391Z,5.2
2023-02-19T07:59:08.563Z,5.2
2023-02-19T08:00:11.984Z,5.1
2023-02-19T08:01:14.961Z,5.2
2023-02-19T08:02:17.418Z,5
2023-02-19T08:03:18.698Z,4.9
2023-02-19T08:04:21.082Z,4.9
2023-02-19T08:05:22.185Z,4.9
2023-02-19T08:06:24.313Z,4.7
2023-02-19T08:07:26.625Z,4.5
2023-02-19T08:08:29.730Z,4.4
2023-02-19T08:09:35.905Z,4.5
2023-02-19T08:10:40.665Z,4.3
2023-02-19T08:11:43.505Z,4.2
2023-02-19T08:12:46.958Z,4.1
2023-02-19T08:13:49.194Z,4.1
2023-02-19T08:14:51.789Z,4.1
2023-02-19T08:15:56.351Z,4.2
2023-02-19T08:16:56.810Z,4.3
2023-02-19T08:18:00.522Z,4.2
2023-02-19T08:19:04.244Z,4.1
2023-02-19T08:20:07.806Z,4.1
2023-02-19T08:21:12.321Z,4.2
2023-02-19T08:22:14.083Z,4
2023-02-19T08:23:16.549Z,4.1
2023-02-19T08:24:19.746Z,4.2
2023-02-19T08:25:22.708Z,4.3
2023-02-19T08:26:24.700Z,4.3
2023-02-19T08:27:28.219Z,4.2
2023-02-19T08:28:31.609Z,4.1
2023-02-19T08:29:33.069Z,4.2
2023-02-19T08:30:34.461Z,4.4
2023-02-19T08:31:36.402Z,4.5
2023-02-19T08:32:38.246Z,4.6
2023-02-19T08:33:40.343Z,4.7
2023-02-19T08:34:42.033Z,4.6
2023-02-19T08:35:43.767Z,4.6
2023-02-19T08:36:46.347Z,4.6
2023-02-19T08:37:50.643Z,4.7
2023-02-19T08:38:52.123Z,4.8
2023-02-19T08:39:53.924Z,4.8
2023-02-19T08:40:57.403Z,4.8
2023-02-19T08:42:01.545Z,4.8
2023-02-19T08:43:05.383Z,4.5
2023-02-19T08:44:08.681Z,4.4
2023-02-19T08:45:11.382Z,4.4
2023-02-19T08:46:14.114Z,4.4
2023-02-19T08:47:15.622Z,4.5
2023-02-19T08:48:18.926Z,4.6
2023-02-19T08:49:21.062Z,4.6
2023-02-19T08:50:23.300Z,4.4
2023-02-19T08:51:26.799Z,4.1
2023-02-19T08:52:29.360Z,3.9
2023-02-19T08:53:34.182Z,3.8
2023-02-19T08:54:37.610Z,3.8
2023-02-19T08:55:40.640Z,3.7
2023-02-19T08:56:44.299Z,3.6
2023-02-19T08:57:47.010Z,3.5
2023-02-19T08:58:49.679Z,3.6
2023-02-19T08:59:52.418Z,3.7
2023-02-19T09:00:55.969Z,3.7
2023-02-19T09:01:59.227Z,3.8
2023-02-19T09:03:01.546Z,3.6
2023-02-19T09:04:05.252Z,3.5
2023-02-19T09:05:09.917Z,3.4
2023-02-19T09:06:14.133Z,3.4
2023-02-19T09:07:17.111Z,3.5
2023-02-19T09:08:19.209Z,3.4
2023-02-19T09:09:22.557Z,3.3
2023-02-19T09:10:26.477Z,3.3
2023-02-19T09:11:30.572Z,3.4
2023-02-19T09:12:33.537Z,3.3
2023-02-19T09:13:36.457Z,3.4
2023-02-19T09:14:40.157Z,3.4
2023-02-19T09:15:43.505Z,3.6
2023-02-19T09:16:46.737Z,3.7
2023-02-19T09:17:50.399Z,3.7
2023-02-19T09:18:53.485Z,3.7
2023-02-19T09:19:56.818Z,3.6
2023-02-19T09:20:59.366Z,3.6
2023-02-19T09:22:01.601Z,3.7
2023-02-19T09:23:04.760Z,3.8
2023-02-19T09:24:10.815Z,4
2023-02-19T09:25:14.924Z,4.1
2023-02-19T09:26:19.477Z,4.1
2023-02-19T09:27:24.498Z,3.9
2023-02-19T09:28:27.459Z,3.7
2023-02-19T09:29:30.063Z,3.8
2023-02-19T09:30:31.637Z,3.8
2023-02-19T09:31:35.370Z,4
2023-02-19T09:32:38.432Z,4
2023-02-19T09:33:42.265Z,4
2023-02-19T09:34:46.018Z,4
2023-02-19T09:35:48.986Z,4
2023-02-19T09:36:52.130Z,3.9
2023-02-19T09:37:54.042Z,3.8
2023-02-19T09:38:55.141Z,4
2023-02-19T09:39:56.823Z,4.2
2023-02-19T09:40:59.779Z,4.3
2023-02-19T09:42:04.416Z,4.3
2023-02-19T09:43:07.120Z,4
2023-02-19T09:44:08.711Z,3.9
2023-02-19T09:45:11.149Z,3.7
2023-02-19T09:46:12.575Z,3.8
2023-02-19T09:47:15.122Z,3.9
2023-02-19T09:48:17.326Z,3.8
2023-02-19T09:49:20.708Z,3.8
2023-02-19T09:50:23.744Z,3.9
2023-02-19T09:51:27.304Z,3.8
2023-02-19T09:52:30.878Z,3.8
2023-02-19T09:53:33.628Z,3.6
2023-02-19T09:54:35.127Z,3.5
2023-02-19T09:55:37.682Z,3.5
2023-02-19T09:56:40.964Z,3.6
2023-02-19T09:57:44.040Z,3.6
2023-02-19T09:58:47.564Z,3.6
2023-02-19T09:59:52.251Z,3.7
2023-02-19T10:00:56.259Z,3.9
2023-02-19T10:01:58.119Z,4
2023-02-19T10:02:59.854Z,4.1
2023-02-19T10:04:02.888Z,4.3
2023-02-19T10:05:05.618Z,4.3
2023-02-19T10:06:11.237Z,4.2
2023-02-19T10:07:10.444Z,4
2023-02-19T10:08:16.445Z,3.9
2023-02-19T10:09:19.376Z,3.8
2023-02-19T10:10:22.380Z,3.8
2023-02-19T10:11:24.378Z,3.7
2023-02-19T10:12:27.145Z,3.9
2023-02-19T10:13:28.520Z,3.8
2023-02-19T10:14:31.067Z,3.6
2023-02-19T10:15:33.346Z,3.8
2023-02-19T10:16:36.693Z,3.8
2023-02-19T10:17:40.083Z,3.8
2023-02-19T10:18:42.517Z,3.9
2023-02-19T10:19:45.179Z,3.9
2023-02-19T10:20:48.255Z,3.9
2023-02-19T10:21:51.977Z,3.8
2023-02-19T10:22:55.387Z,3.9
2023-02-19T10:23:58.206Z,4
2023-02-19T10:24:59.604Z,3.9
2023-02-19T10:26:01.893Z,3.9
2023-02-19T10:27:04.637Z,3.8
2023-02-19T10:28:07.233Z,3.7
2023-02-19T10:29:09.680Z,3.5
2023-02-19T10:30:14.915Z,3.5
2023-02-19T10:31:20.458Z,3.6
2023-02-19T10:32:23.000Z,3.6
2023-02-19T10:33:25.942Z,3.7
2023-02-19T10:34:30.096Z,3.6
2023-02-19T10:35:35.780Z,3.8
2023-02-19T10:36:39.220Z,3.9
2023-02-19T10:37:40.620Z,3.9
2023-02-19T10:38:44.438Z,3.8
2023-02-19T10:39:47.307Z,3.6
2023-02-19T10:40:49.682Z,3.6
2023-02-19T10:41:52.032Z,3.5
2023-02-19T10:42:55.800Z,3.3
2023-02-19T10:43:58.224Z,3.3
2023-02-19T10:44:59.224Z,3.1
2023-02-19T10:46:01.218Z,3
2023-02-19T10:47:02.924Z,2.9
2023-02-19T10:48:05.560Z,2.9
2023-02-19T10:49:09.000Z,3
2023-02-19T10:50:11.353Z,3
2023-02-19T10:51:14.520Z,3.2
2023-02-19T10:52:16.382Z,3.4
2023-02-19T10:53:19.682Z,3.7
2023-02-19T10:54:21.750Z,3.8
2023-02-19T10:55:27.746Z,3.9
2023-02-19T10:56:31.515Z,3.8
2023-02-19T10:57:35.726Z,3.5
2023-02-19T10:58:40.543Z,3.5
2023-02-19T10:59:46.942Z,3.6
2023-02-19T11:00:52.100Z,3.6
2023-02-19T11:01:54.395Z,3.7
2023-02-19T11:02:59.329Z,3.7
2023-02-19T11:04:01.762Z,3.8
2023-02-19T11:05:10.588Z,3.8
2023-02-19T11:06:13.526Z,3.8
2023-02-19T11:07:17.864Z,3.9
2023-02-19T11:08:20.590Z,4
2023-02-19T11:09:22.556Z,4.1
2023-02-19T11:10:27.412Z,4.2
2023-02-19T11:11:30.189Z,4.2
2023-02-19T11:12:34.287Z,4.3
2023-02-19T11:13:40.092Z,4
2023-02-19T11:14:43.282Z,4.1
2023-02-19T11:15:46.740Z,4.2
2023-02-19T11:16:49.099Z,4.1
2023-02-19T11:17:50.760Z,4.1
2023-02-19T11:18:54.823Z,4.1
2023-02-19T11:19:55.832Z,4.1
2023-02-19T11:20:57.506Z,4.3
2023-02-19T11:21:59.758Z,4.5
2023-02-19T11:23:03.660Z,4.4
2023-02-19T11:24:05.784Z,4.4
2023-02-19T11:25:07.412Z,4.5
2023-02-19T11:26:09.737Z,4.6
2023-02-19T11:27:12.356Z,4.8
2023-02-19T11:28:15.734Z,4.9
2023-02-19T11:29:20.253Z,4.6
2023-02-19T11:30:23.258Z,4.3
2023-02-19T11:31:25.395Z,4.2
2023-02-19T11:32:28.531Z,4.2
2023-02-19T11:33:31.202Z,4.1
2023-02-19T11:34:34.445Z,4.2
2023-02-19T11:35:38.439Z,4.1
2023-02-19T11:36:41.550Z,4.1
2023-02-19T11:37:45.533Z,4.2
2023-02-19T11:38:48.800Z,4.2
2023-02-19T11:39:51.843Z,4.2
2023-02-19T11:40:54.327Z,4.3
2023-02-19T11:41:57.400Z,4.5
2023-02-19T11:43:00.630Z,4.4
2023-02-19T11:44:04.562Z,4.4
2023-02-19T11:45:07.905Z,4.5
2023-02-19T11:46:14.011Z,4.5
2023-02-19T11:47:16.743Z,4.6
2023-02-19T11:48:20.665Z,4.5
2023-02-19T11:49:22.953Z,4.5
2023-02-19T11:50:26.187Z,4.6
2023-02-19T11:51:28.532Z,4.7
2023-02-19T11:52:31.091Z,4.6
2023-02-19T11:53:38.584Z,4.4
2023-02-19T11:54:42.518Z,4.5
2023-02-19T11:55:44.345Z,4.4
2023-02-19T11:56:47.422Z,4.4
2023-02-19T11:57:50.829Z,4.3
2023-02-19T11:58:53.702Z,4.3
2023-02-19T11:59:55.152Z,4.2
2023-02-19T12:00:57.533Z,4.2
2023-02-19T12:02:00.354Z,4.2
2023-02-19T12:03:03.501Z,4.2
2023-02-19T12:04:07.504Z,4.2
2023-02-19T12:05:10.325Z,4
2023-02-19T12:06:12.813Z,3.9
2023-02-19T12:07:16.959Z,3.9
2023-02-19T12:08:18.880Z,4
2023-02-19T12:09:21.796Z,4.1
2023-02-19T12:10:24.240Z,4.3
2023-02-19T12:11:25.720Z,4.1
2023-02-19T12:12:28.941Z,4.2
2023-02-19T12:13:32.168Z,4.1
2023-02-19T12:14:34.268Z,4.2
2023-02-19T12:15:36.210Z,4.1
2023-02-19T12:16:39.200Z,4.2
2023-02-19T12:17:41.242Z,4.2
2023-02-19T12:18:45.383Z,4.3
2023-02-19T12:19:49.259Z,4.5
2023-02-19T12:20:50.225Z,4.7
2023-02-19T12:21:51.159Z,4.6
2023-02-19T12:22:53.708Z,4.5
2023-02-19T12:23:56.224Z,4.3
2023-02-19T12:24:57.899Z,4.3
2023-02-19T12:26:07.691Z,4.3
2023-02-19T12:27:11.685Z,4.4
2023-02-19T12:28:15.233Z,4.6
2023-02-19T12:29:16.319Z,4.6
2023-02-19T12:30:17.262Z,4.7
2023-02-19T12:31:18.244Z,4.7
2023-02-19T12:32:19.221Z,4.9
2023-02-19T12:33:21.227Z,4.8
2023-02-19T12:34:22.308Z,4.5
2023-02-19T12:35:25.522Z,4.4
2023-02-19T12:36:28.188Z,4.2
2023-02-19T12:37:30.058Z,4
2023-02-19T12:38:33.241Z,3.9
2023-02-19T12:39:35.967Z,4
2023-02-19T12:40:38.198Z,3.9
2023-02-19T12:41:39.220Z,4
2023-02-19T12:42:40.278Z,3.9
2023-02-19T12:43:42.222Z,3.8
2023-02-19T12:44:43.264Z,3.9
2023-02-19T12:45:46.210Z,4
2023-02-19T12:46:51.260Z,4
2023-02-19T12:47:56.464Z,4
2023-02-19T12:49:00.545Z,4.1
2023-02-19T12:50:06.739Z,4.2
2023-02-19T12:51:10.766Z,4.4
2023-02-19T12:52:15.422Z,4.6
2023-02-19T12:53:20.120Z,4.7
2023-02-19T12:54:22.800Z,4.6
2023-02-19T12:55:26.094Z,4.6
2023-02-19T12:56:28.105Z,4.5
2023-02-19T12:57:29.201Z,4.5
2023-02-19T12:58:30.271Z,4.5
2023-02-19T12:59:34.605Z,4.6
2023-02-19T13:00:40.120Z,4.7
2023-02-19T13:01:43.248Z,4.5
2023-02-19T13:02:44.384Z,4.4
2023-02-19T13:03:46.751Z,4.2
2023-02-19T13:04:49.284Z,4.2
2023-02-19T13:05:50.186Z,4.2
2023-02-19T13:06:51.711Z,4.1
2023-02-19T13:07:54.385Z,4
2023-02-19T13:09:06.200Z,3.9
2023-02-19T13:10:00.592Z,3.9
2023-02-19T13:11:05.055Z,4.1
2023-02-19T13:12:09.005Z,4.2
2023-02-19T13:13:12.751Z,4.2
2023-02-19T13:14:20.805Z,4
2023-02-19T13:15:24.653Z,3.9
2023-02-19T13:16:27.021Z,3.7
2023-02-19T13:17:30.505Z,3.8
2023-02-19T13:18:33.151Z,3.8
2023-02-19T13:19:35.745Z,3.9
2023-02-19T13:20:39.783Z,3.9
2023-02-19T13:21:43.765Z,4
2023-02-19T13:22:47.442Z,4.1
2023-02-19T13:23:51.040Z,4.3
2023-02-19T13:24:53.666Z,4.5
2023-02-19T13:25:57.605Z,4.4
2023-02-19T13:27:00.656Z,4.4
2023-02-19T13:28:03.940Z,4.3
2023-02-19T13:29:07.225Z,4.3
2023-02-19T13:30:09.820Z,4.1
2023-02-19T13:31:13.739Z,4.1
2023-02-19T13:32:15.687Z,4.1
2023-02-19T13:33:21.804Z,4.3
2023-02-19T13:34:27.484Z,4.4
2023-02-19T13:35:34.265Z,4.6
2023-02-19T13:36:41.342Z,4.8
2023-02-19T13:37:45.757Z,5
2023-02-19T13:38:50.125Z,5.2
2023-02-19T13:39:54.506Z,5.4
2023-02-19T13:40:59.202Z,5.6
2023-02-19T13:42:04.581Z,5.7
2023-02-19T13:43:08.623Z,5.6
2023-02-19T13:44:12.408Z,5.4
2023-02-19T13:45:16.667Z,5.2
2023-02-19T13:46:18.228Z,5.3
2023-02-19T13:47:19.626Z,5
2023-02-19T13:48:24.327Z,4.5
2023-02-19T13:49:28.263Z,4.3
2023-02-19T13:50:29.885Z,4.3
2023-02-19T13:51:33.184Z,4.4
2023-02-19T13:52:35.008Z,4.5
2023-02-19T13:53:38.284Z,4.8
2023-02-19T13:54:40.867Z,4.9
2023-02-19T13:55:43.877Z,5.2
2023-02-19T13:56:46.861Z,5.5
2023-02-19T13:57:51.566Z,5.7
2023-02-19T13:58:54.812Z,5.7
2023-02-19T13:59:57.263Z,5.8
2023-02-19T14:00:58.784Z,5.6
2023-02-19T14:02:01.218Z,5.5
2023-02-19T14:03:02.397Z,5.2
2023-02-19T14:04:04.313Z,5.1
2023-02-19T14:05:06.564Z,4.8
2023-02-19T14:06:09.263Z,4.8
2023-02-19T14:07:10.763Z,4.9
2023-02-19T14:08:13.273Z,5
2023-02-19T14:09:14.944Z,5.1
2023-02-19T14:10:17.429Z,5
2023-02-19T14:11:19.479Z,4.9
2023-02-19T14:12:21.792Z,4.8
2023-02-19T14:13:24.464Z,4.7
2023-02-19T14:14:26.771Z,4.5
2023-02-19T14:15:29.389Z,4.6
2023-02-19T14:16:31.723Z,4.6
2023-02-19T14:17:34.844Z,4.5
2023-02-19T14:18:37.242Z,4.5
2023-02-19T14:19:39.587Z,4.3
2023-02-19T14:20:43.342Z,4.2
2023-02-19T14:21:46.979Z,4.3
2023-02-19T14:22:49.651Z,4.3
2023-02-19T14:23:52.252Z,4.4
2023-02-19T14:24:53.762Z,4.5